Time;durP1;ratioP1;P1;durP2;ratioP2;P2;SDS_P1;SDS_P2;PMS_P1;PMS_P2;Temp;Humidity;BMP_temperature;BMP_pressure;BME280_temperature;BME280_humidity;BME280_pressure;Samples;Min_cycle;Max_cycle;Signal;HPM_P1;HPM_P2
2023/07/14 00:00:26;;;;;;;74.22;47.47;;;;;;;;;;4994076;28;20022;-67
2023/07/14 00:02:54;;;;;;;75.32;44.10;;;;;;;;;;4997623;28;20077;-67
2023/07/14 00:05:22;;;;;;;340.27;211.77;;;;;;;;;;4997034;28;20023;-68
2023/07/14 00:07:49;;;;;;;113.25;74.00;;;;;;;;;;4993692;28;20488;-67
2023/07/14 00:10:29;;;;;;;182.13;112.82;;;;;;;;;;4992980;28;20045;-68
2023/07/14 00:12:56;;;;;;;136.50;88.60;;;;;;;;;;4993583;28;20022;-69
2023/07/14 00:15:22;;;;;;;116.70;74.10;;;;;;;;;;4993648;28;20033;-69
2023/07/14 00:17:51;;;;;;;188.77;114.68;;;;;;;;;;4993603;28;20027;-68
2023/07/14 00:20:22;;;;;;;234.80;146.93;;;;;;;;;;4993729;28;20471;-67
2023/07/14 00:22:50;;;;;;;124.85;78.70;;;;;;;;;;4993799;28;20031;-67
2023/07/14 00:25:17;;;;;;;95.82;59.42;;;;;;;;;;4994040;28;20034;-66
2023/07/14 00:27:44;;;;;;;86.88;55.17;;;;;;;;;;4997275;28;20027;-66
2023/07/14 00:30:14;;;;;;;68.40;44.95;;;;;;;;;;4997155;28;20072;-65
2023/07/14 00:32:40;;;;;;;64.70;40.30;;;;;;;;;;4996963;28;20022;-67
2023/07/14 00:35:16;;;;;;;65.78;43.17;;;;;;;;;;4997082;28;20406;-67
2023/07/14 00:37:43;;;;;;;68.68;41.03;;;;;;;;;;4997201;28;20510;-65
2023/07/14 00:40:15;;;;;;;61.17;38.17;;;;;;;;;;4997144;28;20443;-66
2023/07/14 00:42:42;;;;;;;116.43;78.93;;;;;;;;;;4996932;28;20026;-65
2023/07/14 00:45:19;;;;;;;78.40;47.67;;;;;;;;;;4996941;28;20023;-66
2023/07/14 00:47:52;;;;;;;67.70;39.53;;;;;;;;;;4996574;28;20062;-64
2023/07/14 00:50:23;;;;;;;70.18;41.28;;;;;;;;;;4996681;28;20523;-65
2023/07/14 00:52:50;;;;;;;62.63;38.10;;;;;;;;;;4996786;28;20102;-68
2023/07/14 00:55:33;;;;;;;57.90;35.55;;;;;;;;;;4996779;28;20026;-68
2023/07/14 00:58:00;;;;;;;60.47;38.85;;;;;;;;;;4996523;28;20030;-68
2023/07/14 01:00:30;;;;;;;61.13;34.50;;;;;;;;;;5060629;23;20056;-66
2023/07/14 01:02:57;;;;;;;55.67;33.40;;;;;;;;;;5066979;28;20028;-67
2023/07/14 01:05:24;;;;;;;54.17;34.42;;;;;;;;;;5066612;28;20469;-66
2023/07/14 01:07:51;;;;;;;58.63;33.58;;;;;;;;;;5058007;28;20032;-67
2023/07/14 01:10:22;;;;;;;58.45;32.50;;;;;;;;;;5055770;28;20462;-67
2023/07/14 01:12:51;;;;;;;54.95;30.52;;;;;;;;;;5055571;28;20025;-66
2023/07/14 01:15:17;;;;;;;69.70;45.95;;;;;;;;;;5055613;28;20021;-67
2023/07/14 01:17:44;;;;;;;80.93;52.05;;;;;;;;;;5055678;28;20083;-69
2023/07/14 01:20:11;;;;;;;361.25;235.38;;;;;;;;;;5055502;28;20093;-68
2023/07/14 01:22:55;;;;;;;167.95;109.55;;;;;;;;;;5055431;28;20029;-70
2023/07/14 01:25:22;;;;;;;54.15;34.00;;;;;;;;;;5055330;28;20021;-65
2023/07/14 01:27:49;;;;;;;55.92;35.60;;;;;;;;;;5055355;28;20389;-68
2023/07/14 01:30:16;;;;;;;46.03;28.45;;;;;;;;;;5055339;28;20021;-67
2023/07/14 01:32:45;;;;;;;53.17;27.02;;;;;;;;;;5055276;28;20021;-68
2023/07/14 01:35:13;;;;;;;47.42;28.83;;;;;;;;;;5055262;28;20147;-66
2023/07/14 01:37:40;;;;;;;44.25;27.27;;;;;;;;;;5054188;28;20579;-67
2023/07/14 01:40:11;;;;;;;52.38;28.45;;;;;;;;;;5055078;28;20028;-67
2023/07/14 01:42:38;;;;;;;49.08;28.05;;;;;;;;;;5055284;28;20551;-66
2023/07/14 01:45:05;;;;;;;48.13;28.23;;;;;;;;;;5054980;28;20029;-66
2023/07/14 01:47:36;;;;;;;43.55;27.48;;;;;;;;;;5072692;28;20103;-66
2023/07/14 01:50:03;;;;;;;48.65;29.08;;;;;;;;;;5070579;28;20489;-69
2023/07/14 01:52:31;;;;;;;45.28;29.52;;;;;;;;;;5062670;28;20474;-67
2023/07/14 01:55:01;;;;;;;45.25;28.02;;;;;;;;;;5065995;28;20466;-66
2023/07/14 01:57:29;;;;;;;51.22;30.00;;;;;;;;;;5066645;28;20071;-66
2023/07/14 01:59:58;;;;;;;49.80;29.20;;;;;;;;;;5068291;28;20040;-66
2023/07/14 02:02:26;;;;;;;60.47;32.97;;;;;;;;;;5068003;28;20041;-65
2023/07/14 02:04:53;;;;;;;64.00;33.47;;;;;;;;;;5068522;28;20388;-62
2023/07/14 02:07:20;;;;;;;52.13;31.45;;;;;;;;;;5063588;28;20408;-61
2023/07/14 02:09:47;;;;;;;51.47;30.58;;;;;;;;;;5063509;28;20267;-63
2023/07/14 02:12:16;;;;;;;79.85;52.97;;;;;;;;;;5063349;28;20074;-65
2023/07/14 02:14:43;;;;;;;47.10;28.75;;;;;;;;;;5062378;28;20474;-65
2023/07/14 02:17:25;;;;;;;44.40;27.10;;;;;;;;;;5055120;28;20021;-65
2023/07/14 02:19:52;;;;;;;45.13;26.85;;;;;;;;;;5054908;28;20436;-66
2023/07/14 02:22:19;;;;;;;44.45;26.60;;;;;;;;;;5053966;28;20036;-65
2023/07/14 02:24:47;;;;;;;46.25;26.65;;;;;;;;;;5054216;28;20114;-67
2023/07/14 02:27:14;;;;;;;45.55;27.90;;;;;;;;;;5054091;28;20393;-66
2023/07/14 02:29:40;;;;;;;50.47;27.95;;;;;;;;;;5053894;28;20025;-65
2023/07/14 02:32:14;;;;;;;43.60;27.83;;;;;;;;;;5054237;28;20104;-66
2023/07/14 02:34:44;;;;;;;46.53;27.08;;;;;;;;;;5053997;28;20017;-67
2023/07/14 02:37:36;;;;;;;50.83;28.30;;;;;;;;;;5054316;28;20032;-67
2023/07/14 02:40:04;;;;;;;45.55;27.25;;;;;;;;;;5053622;28;20117;-68
2023/07/14 02:42:36;;;;;;;48.72;29.00;;;;;;;;;;5053919;28;20390;-68
2023/07/14 02:45:03;;;;;;;52.13;28.75;;;;;;;;;;5053932;28;20091;-68
2023/07/14 02:47:31;;;;;;;41.00;25.55;;;;;;;;;;5053719;28;20024;-69
2023/07/14 02:49:58;;;;;;;38.80;24.27;;;;;;;;;;5053539;28;20025;-68
2023/07/14 02:52:24;;;;;;;38.83;23.85;;;;;;;;;;5053923;28;20021;-68
2023/07/14 02:54:51;;;;;;;46.67;24.45;;;;;;;;;;5053900;28;20017;-68
2023/07/14 02:57:18;;;;;;;42.10;23.70;;;;;;;;;;5053574;28;20496;-67
2023/07/14 02:59:44;;;;;;;42.03;24.60;;;;;;;;;;5053589;28;20608;-67
2023/07/14 03:02:11;;;;;;;46.40;25.90;;;;;;;;;;5053383;28;20025;-73
2023/07/14 03:04:38;;;;;;;40.15;23.83;;;;;;;;;;5053486;28;20029;-73
2023/07/14 03:07:05;;;;;;;37.67;23.85;;;;;;;;;;5052790;28;20029;-64
2023/07/14 03:09:31;;;;;;;43.00;24.58;;;;;;;;;;5052395;28;20021;-67
2023/07/14 03:11:58;;;;;;;35.22;22.75;;;;;;;;;;5053184;28;20080;-66
2023/07/14 03:14:24;;;;;;;39.10;21.83;;;;;;;;;;5053449;28;20078;-66
2023/07/14 03:16:51;;;;;;;52.75;26.55;;;;;;;;;;5053354;28;20016;-65
2023/07/14 03:19:18;;;;;;;34.55;22.02;;;;;;;;;;5053475;28;20048;-65
2023/07/14 03:21:44;;;;;;;32.55;20.63;;;;;;;;;;5052914;28;20029;-66
2023/07/14 03:24:11;;;;;;;38.47;24.38;;;;;;;;;;5052954;28;20407;-64
2023/07/14 03:26:38;;;;;;;37.88;22.92;;;;;;;;;;5053236;28;20079;-65
2023/07/14 03:29:04;;;;;;;33.03;22.30;;;;;;;;;;5053008;28;20021;-65
2023/07/14 03:31:31;;;;;;;36.60;20.20;;;;;;;;;;5052963;28;20032;-64
2023/07/14 03:33:58;;;;;;;29.30;19.35;;;;;;;;;;5053116;28;20096;-65
2023/07/14 03:36:25;;;;;;;41.83;19.65;;;;;;;;;;5053245;28;20076;-65
2023/07/14 03:39:11;;;;;;;31.23;20.65;;;;;;;;;;5053109;28;20061;-66
2023/07/14 03:41:38;;;;;;;35.10;22.17;;;;;;;;;;5051069;28;20021;-66
2023/07/14 03:44:05;;;;;;;29.60;20.15;;;;;;;;;;5052993;28;20056;-67
2023/07/14 03:46:31;;;;;;;28.90;20.15;;;;;;;;;;5052784;28;20029;-66
2023/07/14 03:48:58;;;;;;;27.40;18.50;;;;;;;;;;5052950;28;20033;-66
2023/07/14 03:51:25;;;;;;;31.02;19.45;;;;;;;;;;5052915;28;20092;-63
2023/07/14 03:53:51;;;;;;;33.38;19.10;;;;;;;;;;5052729;28;20024;-67
2023/07/14 03:56:18;;;;;;;37.45;19.58;;;;;;;;;;5052870;28;20022;-64
2023/07/14 03:58:45;;;;;;;26.17;16.70;;;;;;;;;;5052973;28;20021;-65
2023/07/14 04:01:11;;;;;;;30.50;16.88;;;;;;;;;;5055145;28;20040;-65
2023/07/14 04:03:38;;;;;;;26.90;18.25;;;;;;;;;;5057330;28;20021;-65
2023/07/14 04:06:05;;;;;;;31.85;18.60;;;;;;;;;;5056960;28;20025;-65
2023/07/14 04:08:40;;;;;;;33.35;20.95;;;;;;;;;;5056121;28;20428;-67
2023/07/14 04:11:07;;;;;;;31.02;18.38;;;;;;;;;;5056689;28;20017;-66
2023/07/14 04:13:34;;;;;;;26.63;17.35;;;;;;;;;;5056664;28;20032;-67
2023/07/14 04:16:00;;;;;;;33.83;20.20;;;;;;;;;;5056455;28;20024;-67
2023/07/14 04:18:27;;;;;;;27.00;18.40;;;;;;;;;;5056653;28;20497;-67
2023/07/14 04:20:54;;;;;;;29.25;17.88;;;;;;;;;;5056593;28;20025;-66
2023/07/14 04:23:20;;;;;;;30.88;18.42;;;;;;;;;;5056212;28;20033;-67
2023/07/14 04:25:47;;;;;;;29.60;18.30;;;;;;;;;;5056471;28;20032;-66
2023/07/14 04:28:14;;;;;;;32.63;17.85;;;;;;;;;;5056364;28;20390;-66
2023/07/14 04:30:40;;;;;;;25.00;17.80;;;;;;;;;;5056431;28;20466;-66
2023/07/14 04:33:07;;;;;;;27.48;18.40;;;;;;;;;;5056472;28;20017;-67
2023/07/14 04:35:34;;;;;;;27.75;19.20;;;;;;;;;;5056362;28;20024;-66
2023/07/14 04:38:01;;;;;;;29.55;19.23;;;;;;;;;;5056314;28;20028;-65
2023/07/14 04:40:27;;;;;;;28.13;18.45;;;;;;;;;;5056601;28;20048;-66
2023/07/14 04:42:54;;;;;;;33.92;20.05;;;;;;;;;;5056433;28;20381;-65
2023/07/14 04:45:21;;;;;;;30.10;18.20;;;;;;;;;;5056087;28;20021;-66
2023/07/14 04:47:50;;;;;;;32.05;18.38;;;;;;;;;;5056241;28;20028;-68
2023/07/14 04:50:17;;;;;;;34.03;18.73;;;;;;;;;;5056030;28;20021;-67
2023/07/14 04:52:44;;;;;;;25.00;17.65;;;;;;;;;;5055922;28;20029;-67
2023/07/14 04:55:11;;;;;;;27.52;17.88;;;;;;;;;;5056194;28;20013;-67
2023/07/14 04:57:38;;;;;;;31.08;19.85;;;;;;;;;;5056078;28;20424;-69
2023/07/14 05:00:05;;;;;;;26.88;19.63;;;;;;;;;;5055714;28;20453;-70
2023/07/14 05:02:31;;;;;;;32.78;18.15;;;;;;;;;;5055794;28;20036;-68
2023/07/14 05:05:18;;;;;;;27.77;17.88;;;;;;;;;;5055873;28;20017;-68
2023/07/14 05:07:45;;;;;;;32.80;18.92;;;;;;;;;;5055696;28;20386;-68
2023/07/14 05:10:12;;;;;;;30.90;18.80;;;;;;;;;;5055744;28;20100;-67
2023/07/14 05:12:38;;;;;;;26.67;17.98;;;;;;;;;;5055291;28;20017;-66
2023/07/14 05:15:06;;;;;;;28.05;18.38;;;;;;;;;;5055619;28;20060;-66
2023/07/14 05:17:34;;;;;;;28.27;18.10;;;;;;;;;;5055545;28;20100;-67
2023/07/14 05:20:02;;;;;;;28.55;17.13;;;;;;;;;;5055414;28;20029;-68
2023/07/14 05:22:29;;;;;;;22.35;15.98;;;;;;;;;;5055425;28;20029;-67
2023/07/14 05:24:55;;;;;;;22.23;16.75;;;;;;;;;;5055378;28;20029;-67
2023/07/14 05:27:22;;;;;;;30.00;17.15;;;;;;;;;;5055311;28;20359;-66
2023/07/14 05:29:49;;;;;;;27.63;18.85;;;;;;;;;;5055301;28;20367;-70
2023/07/14 05:32:16;;;;;;;28.05;17.77;;;;;;;;;;5055227;28;20028;-67
2023/07/14 05:34:43;;;;;;;26.50;17.75;;;;;;;;;;5055160;28;20052;-67
2023/07/14 05:37:11;;;;;;;30.55;18.05;;;;;;;;;;5055316;28;20049;-68
2023/07/14 05:39:38;;;;;;;25.60;18.35;;;;;;;;;;5055225;28;20061;-68
2023/07/14 05:42:04;;;;;;;32.72;20.50;;;;;;;;;;5054945;28;20017;-67
2023/07/14 05:44:31;;;;;;;33.92;19.33;;;;;;;;;;5055173;28;20040;-67
2023/07/14 05:46:58;;;;;;;23.63;16.95;;;;;;;;;;5055143;28;20028;-67
2023/07/14 05:49:25;;;;;;;28.38;17.25;;;;;;;;;;5055129;28;20383;-66
2023/07/14 05:51:52;;;;;;;25.02;16.50;;;;;;;;;;5054934;28;20036;-70
2023/07/14 05:54:19;;;;;;;27.02;16.25;;;;;;;;;;5054982;28;20021;-70
2023/07/14 05:56:46;;;;;;;28.27;18.27;;;;;;;;;;5054807;28;20025;-67
2023/07/14 05:59:12;;;;;;;28.13;17.15;;;;;;;;;;5054516;28;20032;-68
2023/07/14 06:01:39;;;;;;;25.40;16.63;;;;;;;;;;5054911;28;20032;-68
2023/07/14 06:04:06;;;;;;;30.33;18.08;;;;;;;;;;5054587;28;20107;-68
2023/07/14 06:06:33;;;;;;;24.48;16.52;;;;;;;;;;5054500;28;20033;-68
2023/07/14 06:09:01;;;;;;;21.63;15.65;;;;;;;;;;5054654;28;20031;-68
2023/07/14 06:11:28;;;;;;;25.25;17.38;;;;;;;;;;5054538;28;20017;-68
2023/07/14 06:13:56;;;;;;;29.50;18.23;;;;;;;;;;5054401;28;20080;-67
2023/07/14 06:16:22;;;;;;;23.70;16.60;;;;;;;;;;5054729;28;20032;-67
2023/07/14 06:18:50;;;;;;;24.65;17.73;;;;;;;;;;5054357;28;20028;-67
2023/07/14 06:21:16;;;;;;;23.85;17.33;;;;;;;;;;5054251;28;20048;-68
2023/07/14 06:23:44;;;;;;;24.25;16.52;;;;;;;;;;5053656;28;20036;-66
2023/07/14 06:26:11;;;;;;;26.30;18.35;;;;;;;;;;5057690;28;20033;-67
2023/07/14 06:28:38;;;;;;;27.35;18.00;;;;;;;;;;5053792;28;20561;-67
2023/07/14 06:31:06;;;;;;;27.05;17.65;;;;;;;;;;5054117;28;20033;-67
2023/07/14 06:33:33;;;;;;;22.52;16.38;;;;;;;;;;5054145;28;20029;-67
2023/07/14 06:36:01;;;;;;;23.42;17.02;;;;;;;;;;5054247;28;20013;-66
2023/07/14 06:38:29;;;;;;;27.27;18.25;;;;;;;;;;5054081;28;20104;-68
2023/07/14 06:40:58;;;;;;;24.48;17.67;;;;;;;;;;5054016;28;20069;-68
2023/07/14 06:43:25;;;;;;;23.67;16.65;;;;;;;;;;5053813;28;20032;-67
2023/07/14 06:45:52;;;;;;;29.17;17.13;;;;;;;;;;5053930;28;20036;-69
2023/07/14 06:48:18;;;;;;;28.90;18.52;;;;;;;;;;5053856;28;20532;-68
2023/07/14 06:50:45;;;;;;;25.08;16.27;;;;;;;;;;5053584;28;20017;-67
2023/07/14 06:53:12;;;;;;;24.38;16.85;;;;;;;;;;5053753;28;20544;-68
2023/07/14 06:55:39;;;;;;;24.15;16.77;;;;;;;;;;5053732;28;20032;-68
2023/07/14 06:58:06;;;;;;;27.13;18.25;;;;;;;;;;5053626;28;20029;-68
2023/07/14 07:00:33;;;;;;;29.13;17.70;;;;;;;;;;5053873;28;20056;-65
2023/07/14 07:03:00;;;;;;;26.73;16.55;;;;;;;;;;5053954;28;20499;-67
2023/07/14 07:05:27;;;;;;;25.83;17.83;;;;;;;;;;5053499;28;20025;-67
2023/07/14 07:07:54;;;;;;;23.90;15.85;;;;;;;;;;5053814;28;20336;-66
2023/07/14 07:10:20;;;;;;;26.00;16.65;;;;;;;;;;5053719;28;20474;-66
2023/07/14 07:12:47;;;;;;;25.27;16.05;;;;;;;;;;5053328;28;20056;-67
2023/07/14 07:15:14;;;;;;;25.80;17.15;;;;;;;;;;5053340;28;20025;-66
2023/07/14 07:17:43;;;;;;;26.45;16.75;;;;;;;;;;5058641;28;20021;-68
2023/07/14 07:20:10;;;;;;;22.85;16.85;;;;;;;;;;5067243;28;20111;-67
2023/07/14 07:22:37;;;;;;;38.33;27.65;;;;;;;;;;5053201;28;20032;-67
2023/07/14 07:25:04;;;;;;;33.05;21.30;;;;;;;;;;5053265;28;20108;-67
2023/07/14 07:27:30;;;;;;;23.88;17.45;;;;;;;;;;5069359;28;20040;-68
2023/07/14 07:29:57;;;;;;;29.88;20.00;;;;;;;;;;5073515;28;20048;-68
2023/07/14 07:32:24;;;;;;;37.72;20.58;;;;;;;;;;5072620;28;20381;-66
2023/07/14 07:34:50;;;;;;;27.70;19.48;;;;;;;;;;5072691;28;20035;-67
2023/07/14 07:37:17;;;;;;;26.40;18.52;;;;;;;;;;5072861;28;20021;-68
2023/07/14 07:39:43;;;;;;;31.98;18.83;;;;;;;;;;5072948;28;20032;-67
2023/07/14 07:42:11;;;;;;;27.92;19.85;;;;;;;;;;5072760;28;20036;-67
2023/07/14 07:44:39;;;;;;;33.60;20.80;;;;;;;;;;5072887;28;20088;-67
2023/07/14 07:47:07;;;;;;;26.73;18.35;;;;;;;;;;5072923;28;20025;-68
2023/07/14 07:49:34;;;;;;;24.30;17.08;;;;;;;;;;5072678;28;20478;-67
2023/07/14 07:52:00;;;;;;;26.17;16.90;;;;;;;;;;5072941;28;20077;-68
2023/07/14 07:54:27;;;;;;;27.85;17.92;;;;;;;;;;5072921;28;20013;-68
2023/07/14 07:56:54;;;;;;;30.85;18.85;;;;;;;;;;5072708;28;20032;-67
2023/07/14 07:59:20;;;;;;;25.30;18.17;;;;;;;;;;5072665;28;20143;-68
2023/07/14 08:01:47;;;;;;;24.75;17.80;;;;;;;;;;5072806;28;20033;-67
2023/07/14 08:04:14;;;;;;;24.65;17.83;;;;;;;;;;5072577;28;20024;-67
2023/07/14 08:06:41;;;;;;;23.65;17.83;;;;;;;;;;5072839;28;20032;-67
2023/07/14 08:09:09;;;;;;;30.98;19.20;;;;;;;;;;5072659;28;20024;-68
2023/07/14 08:11:36;;;;;;;30.20;18.85;;;;;;;;;;5072482;28;20031;-68
2023/07/14 08:14:03;;;;;;;24.20;17.90;;;;;;;;;;5072727;28;20498;-68
2023/07/14 08:16:31;;;;;;;24.75;18.02;;;;;;;;;;5072661;28;20036;-70
2023/07/14 08:18:59;;;;;;;30.83;18.23;;;;;;;;;;5066121;28;20037;-67
2023/07/14 08:21:26;;;;;;;26.67;18.23;;;;;;;;;;5072771;28;20104;-67
2023/07/14 08:23:52;;;;;;;27.30;17.85;;;;;;;;;;5072667;28;20032;-67
2023/07/14 08:26:19;;;;;;;28.50;18.88;;;;;;;;;;5054393;28;20021;-71
2023/07/14 08:28:46;;;;;;;30.02;18.38;;;;;;;;;;5052376;28;20029;-73
2023/07/14 08:31:13;;;;;;;30.58;19.02;;;;;;;;;;5052807;28;20109;-68
2023/07/14 08:33:44;;;;;;;23.55;17.77;;;;;;;;;;5052461;28;20078;-67
2023/07/14 08:36:12;;;;;;;26.03;18.50;;;;;;;;;;5052431;28;20466;-68
2023/07/14 08:38:39;;;;;;;27.60;20.25;;;;;;;;;;5052547;28;20250;-67
2023/07/14 08:41:25;;;;;;;32.10;19.65;;;;;;;;;;5056935;28;20028;-66
2023/07/14 08:44:03;;;;;;;34.10;20.38;;;;;;;;;;5046740;28;20037;-66
2023/07/14 08:46:49;;;;;;;28.85;18.48;;;;;;;;;;5056100;28;20040;-68
2023/07/14 08:49:23;;;;;;;25.98;18.83;;;;;;;;;;5064236;28;20029;-66
2023/07/14 08:51:55;;;;;;;28.77;18.63;;;;;;;;;;5063593;28;20068;-67
2023/07/14 08:54:24;;;;;;;26.13;17.95;;;;;;;;;;5064440;28;20129;-66
2023/07/14 08:56:52;;;;;;;28.05;19.52;;;;;;;;;;5065539;28;20024;-65
2023/07/14 08:59:25;;;;;;;43.42;27.65;;;;;;;;;;5068044;28;20033;-66
2023/07/14 09:01:54;;;;;;;27.48;19.98;;;;;;;;;;5065662;28;20052;-67
2023/07/14 09:04:25;;;;;;;28.30;21.10;;;;;;;;;;5064758;28;20057;-66
2023/07/14 09:06:52;;;;;;;23.38;19.25;;;;;;;;;;5063442;28;20021;-66
2023/07/14 09:09:39;;;;;;;29.42;19.50;;;;;;;;;;5064603;28;20032;-67
2023/07/14 09:12:12;;;;;;;29.35;19.83;;;;;;;;;;5062828;28;20048;-69
2023/07/14 09:14:39;;;;;;;26.95;18.95;;;;;;;;;;5064357;28;20021;-65
2023/07/14 09:17:14;;;;;;;29.80;19.15;;;;;;;;;;5063593;28;20078;-67
2023/07/14 09:19:46;;;;;;;25.33;18.33;;;;;;;;;;5064451;28;20032;-65
2023/07/14 09:22:32;;;;;;;25.98;18.88;;;;;;;;;;5063261;28;20025;-66
2023/07/14 09:24:59;;;;;;;28.70;19.15;;;;;;;;;;5064114;28;20508;-66
2023/07/14 09:27:28;;;;;;;31.98;21.88;;;;;;;;;;5063565;28;20032;-67
2023/07/14 09:29:55;;;;;;;29.10;20.45;;;;;;;;;;5063503;28;20017;-66
2023/07/14 09:32:26;;;;;;;35.60;22.85;;;;;;;;;;5067192;28;20033;-69
2023/07/14 09:34:57;;;;;;;28.58;20.30;;;;;;;;;;5075084;28;20020;-67
2023/07/14 09:37:28;;;;;;;41.60;23.60;;;;;;;;;;5075253;28;20051;-68
2023/07/14 09:40:02;;;;;;;41.67;24.33;;;;;;;;;;5075096;28;20040;-65
2023/07/14 09:42:32;;;;;;;35.85;22.38;;;;;;;;;;5075488;28;20447;-66
2023/07/14 09:45:03;;;;;;;29.63;21.20;;;;;;;;;;5074984;28;20029;-67
2023/07/14 09:47:30;;;;;;;34.78;19.65;;;;;;;;;;5074876;28;20025;-66
2023/07/14 09:49:57;;;;;;;29.50;20.80;;;;;;;;;;5074899;28;20017;-68
2023/07/14 09:52:28;;;;;;;25.80;19.38;;;;;;;;;;5074786;28;20021;-67
2023/07/14 09:54:58;;;;;;;29.35;19.88;;;;;;;;;;5074589;28;20032;-66
2023/07/14 09:57:29;;;;;;;26.48;20.08;;;;;;;;;;5074096;28;20033;-67
2023/07/14 09:59:56;;;;;;;34.22;24.95;;;;;;;;;;5073798;28;20132;-68
2023/07/14 10:02:27;;;;;;;37.80;26.30;;;;;;;;;;5074537;28;20025;-67
2023/07/14 10:04:56;;;;;;;81.28;52.65;;;;;;;;;;5074459;28;20036;-67
2023/07/14 10:07:25;;;;;;;1117.75;692.00;;;;;;;;;;5074381;28;20021;-67
2023/07/14 10:10:24;;;;;;;442.35;267.90;;;;;;;;;;5074273;28;20041;-68
2023/07/14 10:12:49;;;;;;;168.10;97.15;;;;;;;;;;5074261;28;20458;-67
2023/07/14 10:15:36;;;;;;;151.65;86.63;;;;;;;;;;5074376;28;20043;-66
2023/07/14 10:18:05;;;;;;;282.17;142.90;;;;;;;;;;5074092;28;20028;-67
2023/07/14 10:20:33;;;;;;;80.38;46.60;;;;;;;;;;5067162;28;20032;-66
2023/07/14 10:23:00;;;;;;;208.70;90.65;;;;;;;;;;5064744;28;20363;-67
2023/07/14 10:25:28;;;;;;;385.45;143.93;;;;;;;;;;5068088;28;20120;-67
2023/07/14 10:28:04;;;;;;;118.85;56.45;;;;;;;;;;5063201;28;20024;-66
2023/07/14 10:30:30;;;;;;;159.10;65.55;;;;;;;;;;5063496;28;20067;-67
2023/07/14 10:33:00;;;;;;;128.00;61.88;;;;;;;;;;5062382;28;20103;-68
2023/07/14 10:35:29;;;;;;;317.77;115.97;;;;;;;;;;5061732;28;20477;-66
2023/07/14 10:38:00;;;;;;;336.38;114.85;;;;;;;;;;5063137;28;20488;-64
2023/07/14 10:40:27;;;;;;;;;;;;;;;;;;5065202;28;20044;-64
2023/07/14 10:43:04;;;;;;;143.63;56.00;;;;;;;;;;5066041;28;19920;-66
2023/07/14 10:45:34;;;;;;;147.38;56.53;;;;;;;;;;5063462;28;20021;-67
2023/07/14 10:48:01;;;;;;;89.22;42.10;;;;;;;;;;5062618;28;20024;-66
2023/07/14 10:50:33;;;;;;;169.43;60.70;;;;;;;;;;5061218;28;20017;-66
2023/07/14 10:53:07;;;;;;;103.65;43.13;;;;;;;;;;5062373;28;20027;-66
2023/07/14 10:55:35;;;;;;;165.25;68.30;;;;;;;;;;5061621;28;20555;-66
2023/07/14 10:58:10;;;;;;;267.60;101.15;;;;;;;;;;5061874;28;20027;-71
2023/07/14 11:00:51;;;;;;;298.33;127.68;;;;;;;;;;5061941;28;20041;-67
2023/07/14 11:03:35;;;;;;;200.23;90.75;;;;;;;;;;5065308;28;20031;-66
2023/07/14 11:06:05;;;;;;;125.10;60.33;;;;;;;;;;5064951;28;20351;-66
2023/07/14 11:08:33;;;;;;;101.95;54.17;;;;;;;;;;5060931;28;20025;-71
2023/07/14 11:10:59;;;;;;;115.95;60.47;;;;;;;;;;5061698;28;20017;-68
2023/07/14 11:13:43;;;;;;;93.68;51.88;;;;;;;;;;5062674;28;20111;-66
2023/07/14 11:16:12;;;;;;;103.53;67.57;;;;;;;;;;5067407;28;20435;-68
2023/07/14 11:18:47;;;;;;;102.20;67.38;;;;;;;;;;5063385;28;20796;-68
2023/07/14 11:21:27;;;;;;;93.00;60.05;;;;;;;;;;5063665;28;20059;-69
2023/07/14 11:23:56;;;;;;;76.25;51.35;;;;;;;;;;5071356;28;20473;-70
2023/07/14 11:26:23;;;;;;;76.95;49.50;;;;;;;;;;5073136;28;20028;-69
2023/07/14 11:28:52;;;;;;;96.45;60.30;;;;;;;;;;5073025;28;20036;-69
2023/07/14 11:31:20;;;;;;;94.10;62.72;;;;;;;;;;5073271;28;20054;-69
2023/07/14 11:34:07;;;;;;;101.50;63.05;;;;;;;;;;5066141;28;20025;-72
2023/07/14 11:36:48;;;;;;;88.72;58.33;;;;;;;;;;5057263;28;20032;-69
2023/07/14 11:39:19;;;;;;;85.47;52.28;;;;;;;;;;5061405;28;20037;-68
2023/07/14 11:41:46;;;;;;;85.97;49.17;;;;;;;;;;5061054;28;20032;-72
2023/07/14 11:44:14;;;;;;;82.63;48.70;;;;;;;;;;5062708;28;20028;-68
2023/07/14 11:46:43;;;;;;;88.43;52.03;;;;;;;;;;5062212;28;20067;-70
2023/07/14 11:49:22;;;;;;;95.97;53.42;;;;;;;;;;5060636;28;20025;-68
2023/07/14 11:51:50;;;;;;;89.60;54.40;;;;;;;;;;5060538;28;20025;-73
2023/07/14 11:54:19;;;;;;;91.78;54.55;;;;;;;;;;5062123;28;20373;-68
2023/07/14 11:56:59;;;;;;;92.50;54.35;;;;;;;;;;5062078;28;20028;-71
2023/07/14 11:59:29;;;;;;;90.13;52.50;;;;;;;;;;5061560;28;20037;-69
2023/07/14 12:01:56;;;;;;;79.38;49.03;;;;;;;;;;5061279;28;20470;-71
2023/07/14 12:04:32;;;;;;;75.18;49.70;;;;;;;;;;5060753;28;20051;-68
2023/07/14 12:07:20;;;;;;;80.78;48.17;;;;;;;;;;5061557;28;20032;-69
2023/07/14 12:10:08;;;;;;;76.70;47.58;;;;;;;;;;5062360;28;20059;-69
2023/07/14 12:12:35;;;;;;;81.10;49.40;;;;;;;;;;5032527;28;20029;-68
2023/07/14 12:15:02;;;;;;;77.90;50.08;;;;;;;;;;5060982;28;20594;-70
2023/07/14 12:17:38;;;;;;;77.95;49.25;;;;;;;;;;5062382;28;20381;-69
2023/07/14 12:20:24;;;;;;;81.70;51.83;;;;;;;;;;5061302;28;20557;-68
2023/07/14 12:23:11;;;;;;;96.72;56.92;;;;;;;;;;5062334;28;20086;-68
2023/07/14 12:25:41;;;;;;;143.50;80.10;;;;;;;;;;5065013;28;20025;-67
2023/07/14 12:28:14;;;;;;;236.13;116.82;;;;;;;;;;5064266;28;20076;-66
2023/07/14 12:30:48;;;;;;;298.48;139.60;;;;;;;;;;5063525;28;20025;-67
2023/07/14 12:33:17;;;;;;;299.00;139.23;;;;;;;;;;5063078;28;20103;-67
2023/07/14 12:35:44;;;;;;;268.38;134.13;;;;;;;;;;5064370;28;20504;-68
2023/07/14 12:38:12;;;;;;;210.32;108.93;;;;;;;;;;5055487;28;20025;-68
2023/07/14 12:40:38;;;;;;;183.52;98.20;;;;;;;;;;5055596;28;20452;-68
2023/07/14 12:43:07;;;;;;;162.82;90.43;;;;;;;;;;5061856;28;20035;-68
2023/07/14 12:45:34;;;;;;;173.35;92.65;;;;;;;;;;5062681;28;20032;-68
2023/07/14 12:48:02;;;;;;;180.73;100.60;;;;;;;;;;5055324;28;20052;-69
2023/07/14 12:50:29;;;;;;;186.60;102.40;;;;;;;;;;5054926;28;20028;-70
2023/07/14 12:52:56;;;;;;;200.50;114.00;;;;;;;;;;5055303;28;20486;-69
2023/07/14 12:55:24;;;;;;;211.70;117.90;;;;;;;;;;5055296;28;20021;-69
2023/07/14 12:57:51;;;;;;;219.98;119.63;;;;;;;;;;5054991;28;20025;-69
2023/07/14 13:00:20;;;;;;;218.48;124.43;;;;;;;;;;5054962;28;20275;-68
2023/07/14 13:02:48;;;;;;;243.23;130.63;;;;;;;;;;5055017;28;20036;-72
2023/07/14 13:05:15;;;;;;;237.02;125.13;;;;;;;;;;5054876;28;20037;-66
2023/07/14 13:07:45;;;;;;;216.90;117.30;;;;;;;;;;5055033;28;20024;-65
2023/07/14 13:10:21;;;;;;;206.13;110.88;;;;;;;;;;5054925;28;20029;-66
2023/07/14 13:12:48;;;;;;;203.73;116.40;;;;;;;;;;5054836;28;20031;-66
2023/07/14 13:15:17;;;;;;;194.32;118.35;;;;;;;;;;5055220;28;20114;-65
2023/07/14 13:17:44;;;;;;;191.38;111.50;;;;;;;;;;5054697;28;20041;-66
2023/07/14 13:20:18;;;;;;;219.57;122.85;;;;;;;;;;5054870;28;20057;-66
2023/07/14 13:22:44;;;;;;;249.80;136.40;;;;;;;;;;5054616;28;20548;-67
2023/07/14 13:25:29;;;;;;;227.30;129.13;;;;;;;;;;5054816;28;20033;-66
2023/07/14 13:27:56;;;;;;;202.98;116.05;;;;;;;;;;5054539;28;20428;-66
2023/07/14 13:30:32;;;;;;;189.18;109.60;;;;;;;;;;5063619;28;20485;-65
2023/07/14 13:32:59;;;;;;;204.27;116.88;;;;;;;;;;5067631;28;20021;-67
2023/07/14 13:35:28;;;;;;;207.23;121.00;;;;;;;;;;5074450;28;20044;-66
2023/07/14 13:37:59;;;;;;;276.88;158.88;;;;;;;;;;5074904;28;20047;-66
2023/07/14 13:40:28;;;;;;;282.42;163.35;;;;;;;;;;5074598;28;20105;-66
2023/07/14 13:42:59;;;;;;;287.15;158.15;;;;;;;;;;5074758;28;20071;-67
2023/07/14 13:45:38;;;;;;;282.52;155.35;;;;;;;;;;5074510;28;20021;-67
2023/07/14 13:48:20;;;;;;;251.82;140.85;;;;;;;;;;5061660;28;20094;-66
2023/07/14 13:50:46;;;;;;;231.75;137.55;;;;;;;;;;5062235;28;20096;-66
2023/07/14 13:53:13;;;;;;;218.32;131.02;;;;;;;;;;5062169;28;20555;-66
2023/07/14 13:55:40;;;;;;;210.60;128.07;;;;;;;;;;5063810;28;20112;-66
2023/07/14 13:58:11;;;;;;;200.73;124.45;;;;;;;;;;5063303;28;20013;-65
2023/07/14 14:00:37;;;;;;;201.13;124.93;;;;;;;;;;5061931;28;20032;-66
2023/07/14 14:03:04;;;;;;;199.73;125.35;;;;;;;;;;5063061;28;20473;-67
2023/07/14 14:05:36;;;;;;;221.02;126.70;;;;;;;;;;5063105;28;20028;-66
2023/07/14 14:08:04;;;;;;;202.57;123.50;;;;;;;;;;5062182;28;20029;-66
2023/07/14 14:10:31;;;;;;;197.63;113.45;;;;;;;;;;5061833;28;20042;-66
2023/07/14 14:12:59;;;;;;;168.80;101.80;;;;;;;;;;5063436;28;20012;-66
2023/07/14 14:15:27;;;;;;;162.55;97.05;;;;;;;;;;5062377;28;20040;-66
2023/07/14 14:17:58;;;;;;;157.68;93.55;;;;;;;;;;5061917;28;20452;-64
2023/07/14 14:20:27;;;;;;;142.35;89.53;;;;;;;;;;5062365;28;20031;-65
2023/07/14 14:22:54;;;;;;;121.47;73.50;;;;;;;;;;5063176;28;20036;-66